West Dover, VT (05356)

10:50 PM EST on March 04, 2015 (GMT -0500)
Upload Testing | Change Station
CLOSE
Current Station
Personal Weather Station
Location: Dover, VT
Elevation: 1916 ft
Nearby Weather Stations

Elev 1916 ft 42.94 °N, 72.88 °W | Updated 1 minute ago

Mostly Cloudy
Mostly Cloudy
27.8 °F
Feels Like 20 °F
N
7.0
Wind Variable Wind from North
Gusts 10.0 mph

Today
High -- | Low -- °F
--% Chance of Precip.
Yesterday
High -- | Low -- °F
Precip. -- in
6:22 AM 5:44 PM
Full, 100% visible
Pressure 29.91 in
Visibility 10.0 miles
Clouds Overcast 3500 ft
Windchill 20 °F
Dew Point 24 °F
Humidity 79%
Rainfall in
Snow Depth Not available.
UV 0 out of 12
Pollen .50 out of 12
Air Quality Not available.
Flu Activity Not available.
METAR KDDH 050254Z AUTO 29006KT 10SM OVC035 01/M06 A2989 RMK AO2 SLP128 T00061056 53022 $

More Conditions Fewer Conditions

Pressure 29.91 in
Visibility 10.0 miles
Clouds Overcast 3500 ft
Windchill 20 °F
Dew Point 24 °F
Humidity 79%
Rainfall in
Snow Depth Not available.
UV 0 out of 12
Pollen .50 out of 12
Air Quality Not available.
Flu Activity Not available.
METAR KDDH 050254Z AUTO 29006KT 10SM OVC035 01/M06 A2989 RMK AO2 SLP128 T00061056 53022 $

More Conditions Fewer Conditions

10-Day Weather Forecast

Almanac

Astronomy

Mar. 04, 2015 Rise Set
Actual Time
Civil Twilight
Nautical Twilight
Astronomical Twilight
Moon
Length of Visible Light
Length of Day
Tomorrow will be .
, % of the Moon is Illuminated

Today's Extremes

State Highs State Lows

Community

WunderPhotos

Upload Photos

1,802,655 photos uploaded!

WunderBlogs® & News

Nearby

Air Quality

  Air Quality AQ Index Pollutant
Not available.

Snow Depth

Station Depth Elevation

Earthquake Activity

City Distance Mag. Time & Date
Minimum magnitude displayed is 2.5.

Coastal Water Temperatures

Place Temperature

Nearby Weather Stations